Time;durP1;ratioP1;P1;durP2;ratioP2;P2;SDS_P1;SDS_P2;PMS_P1;PMS_P2;Temp;Humidity;BMP_temperature;BMP_pressure;BME280_temperature;BME280_humidity;BME280_pressure;Samples;Min_cycle;Max_cycle;Signal;HPM_P1;HPM_P2
2024/04/17 00:01:34;;;;;;;2.13;2.03;;;;;;;;;;5675220;25;20326;-49
2024/04/17 00:04:01;;;;;;;2.00;1.90;;;;;;;;;;5675694;25;20270;-48
2024/04/17 00:06:30;;;;;;;2.25;2.05;;;;;;;;;;5674660;25;20232;-50
2024/04/17 00:08:56;;;;;;;2.05;1.95;;;;;;;;;;5675590;25;20220;-50
2024/04/17 00:11:28;;;;;;;3.00;2.80;;;;;;;;;;5675172;25;20220;-52
2024/04/17 00:13:54;;;;;;;4.70;4.20;;;;;;;;;;5675216;25;20219;-50
2024/04/17 00:16:23;;;;;;;3.08;2.60;;;;;;;;;;5671879;25;21004;-51
2024/04/17 00:18:50;;;;;;;3.05;2.70;;;;;;;;;;5675616;25;20274;-50
2024/04/17 00:21:19;;;;;;;3.10;2.83;;;;;;;;;;5675298;25;20283;-48
2024/04/17 00:23:45;;;;;;;3.05;2.78;;;;;;;;;;5675015;25;20216;-53
2024/04/17 00:26:15;;;;;;;3.20;3.00;;;;;;;;;;5675348;25;20220;-48
2024/04/17 00:28:45;;;;;;;3.42;3.13;;;;;;;;;;5674817;25;20216;-54
2024/04/17 00:31:14;;;;;;;3.95;3.55;;;;;;;;;;5674956;25;20228;-52
2024/04/17 00:33:41;;;;;;;3.22;2.95;;;;;;;;;;5674811;25;20220;-53
2024/04/17 00:36:10;;;;;;;3.53;3.22;;;;;;;;;;5675027;25;20266;-50
2024/04/17 00:38:36;;;;;;;3.00;2.80;;;;;;;;;;5675159;25;20274;-53
2024/04/17 00:41:06;;;;;;;3.80;3.50;;;;;;;;;;5675142;25;20258;-51
2024/04/17 00:43:32;;;;;;;4.07;3.78;;;;;;;;;;5673860;25;20270;-53
2024/04/17 00:46:04;;;;;;;3.47;3.20;;;;;;;;;;5672030;25;20573;-49
2024/04/17 00:48:33;;;;;;;3.80;3.50;;;;;;;;;;5674609;25;20264;-51
2024/04/17 00:51:00;;;;;;;3.70;3.50;;;;;;;;;;5674812;25;20224;-48
2024/04/17 00:53:31;;;;;;;4.95;4.47;;;;;;;;;;5674071;25;20239;-52
2024/04/17 00:55:58;;;;;;;4.22;3.92;;;;;;;;;;5666763;25;20275;-51
2024/04/17 00:58:27;;;;;;;4.70;4.30;;;;;;;;;;5670999;25;20224;-48
2024/04/17 01:00:54;;;;;;;5.18;4.45;;;;;;;;;;5662739;25;20250;-50
2024/04/17 01:03:26;;;;;;;5.82;5.22;;;;;;;;;;5673889;25;20263;-52
2024/04/17 01:05:53;;;;;;;5.32;4.82;;;;;;;;;;5662313;25;20296;-51
2024/04/17 01:08:41;;;;;;;5.10;4.60;;;;;;;;;;5674317;25;20600;-52
2024/04/17 01:11:07;;;;;;;5.30;4.75;;;;;;;;;;5661939;25;20236;-48
2024/04/17 01:13:36;;;;;;;5.85;5.28;;;;;;;;;;5673950;25;20745;-52
2024/04/17 01:16:03;;;;;;;6.07;5.15;;;;;;;;;;5671355;25;20259;-49
2024/04/17 01:18:35;;;;;;;5.20;4.60;;;;;;;;;;5676138;25;20223;-50
2024/04/17 01:21:04;;;;;;;5.95;4.93;;;;;;;;;;5678374;25;20220;-51
2024/04/17 01:23:33;;;;;;;5.80;5.28;;;;;;;;;;5677602;25;20322;-52
2024/04/17 01:26:02;;;;;;;5.60;5.00;;;;;;;;;;5678434;25;20610;-53
2024/04/17 01:28:31;;;;;;;5.03;4.63;;;;;;;;;;5677994;25;20216;-51
2024/04/17 01:30:58;;;;;;;5.68;4.78;;;;;;;;;;5678063;25;20289;-51
2024/04/17 01:33:27;;;;;;;5.90;5.30;;;;;;;;;;5677943;25;20699;-51
2024/04/17 01:35:53;;;;;;;8.63;6.00;;;;;;;;;;5665966;25;20220;-52
2024/04/17 01:38:22;;;;;;;7.05;5.65;;;;;;;;;;5678079;25;20220;-50
2024/04/17 01:40:49;;;;;;;5.20;4.80;;;;;;;;;;5671933;25;20240;-48
2024/04/17 01:43:20;;;;;;;6.75;4.30;;;;;;;;;;5676464;25;20283;-52
2024/04/17 01:45:48;;;;;;;7.07;4.75;;;;;;;;;;5673759;25;20216;-50
2024/04/17 01:48:17;;;;;;;4.80;4.03;;;;;;;;;;5677855;25;20336;-52
2024/04/17 01:50:43;;;;;;;5.93;4.60;;;;;;;;;;5677645;25;20733;-50
2024/04/17 01:53:12;;;;;;;10.32;4.80;;;;;;;;;;5677644;25;20240;-52
2024/04/17 01:55:39;;;;;;;13.85;5.10;;;;;;;;;;5677263;25;20220;-51
2024/04/17 01:58:08;;;;;;;5.70;4.57;;;;;;;;;;5668002;25;20635;-52
2024/04/17 02:00:38;;;;;;;6.25;5.65;;;;;;;;;;5676359;25;20243;-52
2024/04/17 02:03:09;;;;;;;6.88;4.50;;;;;;;;;;5677240;25;20267;-50
2024/04/17 02:05:35;;;;;;;5.57;4.28;;;;;;;;;;5677035;25;20322;-50
2024/04/17 02:08:04;;;;;;;4.22;3.83;;;;;;;;;;5677372;25;20284;-52
2024/04/17 02:10:31;;;;;;;7.20;4.30;;;;;;;;;;5671397;25;20854;-49
2024/04/17 02:13:00;;;;;;;8.27;4.40;;;;;;;;;;5677127;25;21010;-49
2024/04/17 02:15:26;;;;;;;5.68;4.45;;;;;;;;;;5674103;25;20219;-50
2024/04/17 02:17:58;;;;;;;4.68;4.00;;;;;;;;;;5677341;25;20258;-51
2024/04/17 02:20:24;;;;;;;4.93;4.22;;;;;;;;;;5677424;25;20232;-53
2024/04/17 02:22:54;;;;;;;5.35;4.05;;;;;;;;;;5676828;25;20295;-50
2024/04/17 02:25:20;;;;;;;4.50;4.00;;;;;;;;;;5677027;25;20220;-48
2024/04/17 02:27:49;;;;;;;7.18;4.00;;;;;;;;;;5677045;25;20801;-49
2024/04/17 02:30:16;;;;;;;3.90;3.00;;;;;;;;;;5676556;25;20220;-51
2024/04/17 02:32:45;;;;;;;6.05;4.60;;;;;;;;;;5676846;25;20557;-52
2024/04/17 02:35:14;;;;;;;7.18;3.58;;;;;;;;;;5677016;25;20714;-52
2024/04/17 02:37:43;;;;;;;4.78;4.32;;;;;;;;;;5677170;25;20972;-49
2024/04/17 02:40:12;;;;;;;4.25;3.85;;;;;;;;;;5670907;25;20244;-50
2024/04/17 02:42:41;;;;;;;8.13;4.28;;;;;;;;;;5676690;25;20224;-49
2024/04/17 02:45:07;;;;;;;6.00;3.33;;;;;;;;;;5673434;25;20224;-49
2024/04/17 02:47:36;;;;;;;5.10;3.90;;;;;;;;;;5676800;25;20332;-52
2024/04/17 02:50:03;;;;;;;6.35;4.35;;;;;;;;;;5676923;25;20220;-51
2024/04/17 02:52:35;;;;;;;7.95;4.40;;;;;;;;;;5676242;25;20224;-53
2024/04/17 02:55:02;;;;;;;7.13;4.13;;;;;;;;;;5677001;25;20541;-49
2024/04/17 02:57:31;;;;;;;6.97;4.68;;;;;;;;;;5676504;25;20290;-48
2024/04/17 02:59:58;;;;;;;5.47;4.25;;;;;;;;;;5676598;25;20224;-48
2024/04/17 03:02:27;;;;;;;5.85;3.83;;;;;;;;;;5676087;25;20228;-50
2024/04/17 03:04:53;;;;;;;3.58;3.28;;;;;;;;;;5676248;25;20212;-48
2024/04/17 03:07:22;;;;;;;5.97;3.47;;;;;;;;;;5676561;25;20274;-49
2024/04/17 03:09:52;;;;;;;5.60;3.55;;;;;;;;;;5669939;25;20232;-48
2024/04/17 03:12:21;;;;;;;4.20;3.28;;;;;;;;;;5676331;25;20742;-51
2024/04/17 03:14:47;;;;;;;3.72;3.35;;;;;;;;;;5673038;25;20223;-51
2024/04/17 03:17:16;;;;;;;7.28;4.28;;;;;;;;;;5676614;25;20279;-54
2024/04/17 03:19:44;;;;;;;7.95;4.15;;;;;;;;;;5672390;25;20223;-50
2024/04/17 03:22:13;;;;;;;3.83;2.85;;;;;;;;;;5676735;25;20718;-50
2024/04/17 03:24:40;;;;;;;6.40;3.40;;;;;;;;;;5676060;25;20228;-48
2024/04/17 03:27:12;;;;;;;4.68;3.42;;;;;;;;;;5676495;25;20265;-51
2024/04/17 03:29:38;;;;;;;6.53;4.32;;;;;;;;;;5676396;25;20220;-49
2024/04/17 03:32:08;;;;;;;10.02;4.00;;;;;;;;;;5676404;25;20262;-53
2024/04/17 03:34:35;;;;;;;4.03;3.00;;;;;;;;;;5676023;25;20219;-53
2024/04/17 03:37:04;;;;;;;4.57;3.40;;;;;;;;;;5676178;25;20266;-49
2024/04/17 03:39:33;;;;;;;6.78;4.15;;;;;;;;;;5671597;25;20294;-53
2024/04/17 03:42:02;;;;;;;4.68;3.17;;;;;;;;;;5675005;25;20224;-48
2024/04/17 03:44:34;;;;;;;9.60;3.58;;;;;;;;;;5675141;25;20715;-50
2024/04/17 03:47:03;;;;;;;7.43;4.35;;;;;;;;;;5665571;25;20231;-50
2024/04/17 03:49:32;;;;;;;10.05;3.33;;;;;;;;;;5674017;25;20776;-52
2024/04/17 03:51:58;;;;;;;11.65;4.78;;;;;;;;;;5664926;25;20964;-52
2024/04/17 03:54:27;;;;;;;4.93;4.15;;;;;;;;;;5675383;25;20808;-50
2024/04/17 03:56:54;;;;;;;10.85;5.00;;;;;;;;;;5675848;25;20733;-52
2024/04/17 03:59:23;;;;;;;3.75;3.17;;;;;;;;;;5675596;25;20321;-48
2024/04/17 04:01:52;;;;;;;4.85;3.28;;;;;;;;;;5675292;25;20219;-49
2024/04/17 04:04:21;;;;;;;3.88;2.80;;;;;;;;;;5675260;25;20259;-49
2024/04/17 04:06:48;;;;;;;3.30;2.78;;;;;;;;;;5676059;25;20220;-48
2024/04/17 04:09:17;;;;;;;5.35;3.00;;;;;;;;;;5675520;25;20223;-49
2024/04/17 04:11:43;;;;;;;8.52;4.43;;;;;;;;;;5675164;25;20275;-51
2024/04/17 04:14:12;;;;;;;6.60;3.10;;;;;;;;;;5675136;25;20262;-48
2024/04/17 04:16:39;;;;;;;2.83;2.35;;;;;;;;;;5671399;25;20250;-48
2024/04/17 04:19:11;;;;;;;3.65;2.58;;;;;;;;;;5673812;25;20224;-52
2024/04/17 04:21:40;;;;;;;3.85;3.17;;;;;;;;;;5675380;25;20821;-51
2024/04/17 04:24:07;;;;;;;6.20;3.30;;;;;;;;;;5675222;25;20216;-53
2024/04/17 04:26:36;;;;;;;5.55;2.75;;;;;;;;;;5674818;25;20782;-51
2024/04/17 04:29:02;;;;;;;4.95;4.05;;;;;;;;;;5675344;25;20559;-48
2024/04/17 04:31:32;;;;;;;8.07;3.22;;;;;;;;;;5675055;25;20341;-49
2024/04/17 04:33:59;;;;;;;4.13;3.03;;;;;;;;;;5663889;25;20250;-50
2024/04/17 04:36:30;;;;;;;3.72;2.95;;;;;;;;;;5675369;25;20889;-52
2024/04/17 04:38:57;;;;;;;9.82;2.83;;;;;;;;;;5664186;25;20220;-51
2024/04/17 04:41:26;;;;;;;4.53;2.67;;;;;;;;;;5672556;25;20258;-50
2024/04/17 04:43:52;;;;;;;3.08;2.45;;;;;;;;;;5673830;25;20274;-48
2024/04/17 04:46:21;;;;;;;7.60;3.28;;;;;;;;;;5673514;25;20326;-51
2024/04/17 04:48:48;;;;;;;5.68;2.90;;;;;;;;;;5670634;25;20215;-53
2024/04/17 04:51:17;;;;;;;5.13;2.95;;;;;;;;;;5674431;25;20247;-52
2024/04/17 04:53:46;;;;;;;7.80;3.85;;;;;;;;;;5678117;25;20258;-51
2024/04/17 04:56:15;;;;;;;3.85;2.97;;;;;;;;;;5679187;25;20220;-51
2024/04/17 04:58:42;;;;;;;3.53;2.55;;;;;;;;;;5678435;25;20235;-53
2024/04/17 05:01:12;;;;;;;4.25;2.53;;;;;;;;;;5678561;25;20287;-52
2024/04/17 05:03:38;;;;;;;5.20;3.05;;;;;;;;;;5678148;25;20718;-49
2024/04/17 05:06:08;;;;;;;11.68;3.50;;;;;;;;;;5678665;25;20322;-49
2024/04/17 05:08:34;;;;;;;3.72;2.63;;;;;;;;;;5678463;25;20694;-48
2024/04/17 05:11:07;;;;;;;4.85;2.70;;;;;;;;;;5676079;25;20262;-48
2024/04/17 05:13:33;;;;;;;5.15;2.58;;;;;;;;;;5677898;25;20254;-50
2024/04/17 05:16:02;;;;;;;12.68;3.22;;;;;;;;;;5678550;25;20232;-51
2024/04/17 05:18:29;;;;;;;3.13;2.40;;;;;;;;;;5672121;25;20605;-52
2024/04/17 05:20:58;;;;;;;6.30;3.55;;;;;;;;;;5678575;25;20318;-51
2024/04/17 05:23:27;;;;;;;5.97;2.67;;;;;;;;;;5678133;25;20560;-52
2024/04/17 05:25:54;;;;;;;4.93;2.67;;;;;;;;;;5678304;25;20560;-49
2024/04/17 05:28:26;;;;;;;6.05;2.70;;;;;;;;;;5678137;25;20223;-51
2024/04/17 05:30:57;;;;;;;4.25;2.90;;;;;;;;;;5678167;25;20231;-49
2024/04/17 05:33:26;;;;;;;10.07;2.90;;;;;;;;;;5677550;25;20283;-49
2024/04/17 05:35:53;;;;;;;4.95;2.72;;;;;;;;;;5678202;25;20271;-49
2024/04/17 05:38:22;;;;;;;5.90;3.10;;;;;;;;;;5677744;25;20283;-50
2024/04/17 05:40:48;;;;;;;2.80;2.35;;;;;;;;;;5675504;25;20216;-49
2024/04/17 05:43:18;;;;;;;3.50;2.80;;;;;;;;;;5677304;25;20228;-53
2024/04/17 05:45:47;;;;;;;5.55;2.67;;;;;;;;;;5677578;25;20714;-49
2024/04/17 05:48:17;;;;;;;6.43;2.40;;;;;;;;;;5671050;25;20236;-53
2024/04/17 05:50:43;;;;;;;5.20;3.25;;;;;;;;;;5677875;25;20220;-50
2024/04/17 05:53:12;;;;;;;10.07;3.08;;;;;;;;;;5677574;25;20282;-47
2024/04/17 05:55:40;;;;;;;6.03;2.38;;;;;;;;;;5668745;25;20280;-50
2024/04/17 05:58:09;;;;;;;3.63;3.33;;;;;;;;;;5677805;25;20228;-49
2024/04/17 06:00:35;;;;;;;6.47;2.70;;;;;;;;;;5677571;25;20288;-51
2024/04/17 06:03:08;;;;;;;3.70;2.78;;;;;;;;;;5676698;25;20677;-53
2024/04/17 06:05:34;;;;;;;5.07;2.35;;;;;;;;;;5677792;25;20270;-48
2024/04/17 06:08:03;;;;;;;12.57;2.80;;;;;;;;;;5677858;25;20649;-48
2024/04/17 06:10:30;;;;;;;3.28;2.42;;;;;;;;;;5677568;25;20702;-48
2024/04/17 06:13:00;;;;;;;5.63;2.40;;;;;;;;;;5671356;25;20746;-48
2024/04/17 06:15:26;;;;;;;3.88;2.30;;;;;;;;;;5676977;25;20254;-50
2024/04/17 06:17:55;;;;;;;8.13;2.78;;;;;;;;;;5674193;25;20244;-47
2024/04/17 06:20:25;;;;;;;4.97;2.72;;;;;;;;;;5677453;25;20220;-48
2024/04/17 06:22:54;;;;;;;3.13;2.45;;;;;;;;;;5677152;25;20340;-49
2024/04/17 06:25:21;;;;;;;4.35;2.75;;;;;;;;;;5675955;25;20255;-50
2024/04/17 06:27:50;;;;;;;3.55;2.90;;;;;;;;;;5677512;25;20220;-49
2024/04/17 06:30:17;;;;;;;6.28;3.22;;;;;;;;;;5677411;25;20262;-53
2024/04/17 06:32:46;;;;;;;6.97;4.05;;;;;;;;;;5676948;25;20271;-52
2024/04/17 06:35:12;;;;;;;3.67;2.72;;;;;;;;;;5677186;25;20251;-48
2024/04/17 06:37:44;;;;;;;3.33;2.50;;;;;;;;;;5677045;25;20338;-50
2024/04/17 06:40:10;;;;;;;3.38;2.55;;;;;;;;;;5677025;25;20270;-49
2024/04/17 06:42:39;;;;;;;5.60;3.70;;;;;;;;;;5676764;25;20295;-50
2024/04/17 06:45:06;;;;;;;3.80;2.70;;;;;;;;;;5676455;25;20263;-48
2024/04/17 06:47:35;;;;;;;4.95;3.00;;;;;;;;;;5673383;25;20240;-51
2024/04/17 06:50:02;;;;;;;4.40;3.03;;;;;;;;;;5668985;25;20502;-50
2024/04/17 06:52:31;;;;;;;8.95;3.53;;;;;;;;;;5676803;25;20228;-49
2024/04/17 06:55:00;;;;;;;4.47;4.05;;;;;;;;;;5676710;25;20220;-51
2024/04/17 06:57:29;;;;;;;3.45;2.97;;;;;;;;;;5675665;25;20325;-48
2024/04/17 06:59:56;;;;;;;5.60;2.78;;;;;;;;;;5676891;25;20560;-49
2024/04/17 07:02:25;;;;;;;5.00;2.50;;;;;;;;;;5676491;25;20781;-50
2024/04/17 07:04:51;;;;;;;3.03;2.45;;;;;;;;;;5676399;25;20228;-52
2024/04/17 07:07:21;;;;;;;9.07;4.25;;;;;;;;;;5676762;25;20215;-48
2024/04/17 07:09:47;;;;;;;4.78;2.78;;;;;;;;;;5676609;25;20555;-52
2024/04/17 07:12:20;;;;;;;6.78;3.00;;;;;;;;;;5676728;25;20733;-50
2024/04/17 07:14:46;;;;;;;7.65;3.63;;;;;;;;;;5668295;25;20215;-49
2024/04/17 07:17:15;;;;;;;3.78;3.00;;;;;;;;;;5665499;25;20240;-50
2024/04/17 07:19:42;;;;;;;4.13;2.58;;;;;;;;;;5671691;25;20852;-50
2024/04/17 07:22:11;;;;;;;5.32;2.38;;;;;;;;;;5676753;25;20224;-49
2024/04/17 07:24:38;;;;;;;4.40;2.95;;;;;;;;;;5675535;25;20224;-52
2024/04/17 07:27:07;;;;;;;3.55;2.55;;;;;;;;;;5675498;25;20235;-49
2024/04/17 07:29:36;;;;;;;4.93;2.30;;;;;;;;;;5676482;25;20304;-53
2024/04/17 07:32:06;;;;;;;3.80;1.92;;;;;;;;;;5676361;25;20228;-47
2024/04/17 07:34:33;;;;;;;4.57;2.50;;;;;;;;;;5675904;25;20224;-47
2024/04/17 07:37:02;;;;;;;4.65;2.00;;;;;;;;;;5675903;25;20255;-48
2024/04/17 07:39:29;;;;;;;4.93;2.13;;;;;;;;;;5675998;25;20216;-48
2024/04/17 07:41:58;;;;;;;2.17;2.08;;;;;;;;;;5676130;25;20318;-47
2024/04/17 07:44:24;;;;;;;3.40;2.17;;;;;;;;;;5675401;25;20274;-48
2024/04/17 07:46:56;;;;;;;7.68;1.73;;;;;;;;;;5675170;25;20236;-49
2024/04/17 07:49:23;;;;;;;5.30;2.40;;;;;;;;;;5664736;25;20757;-49
2024/04/17 07:51:52;;;;;;;4.43;2.10;;;;;;;;;;5676016;25;20224;-52
2024/04/17 07:54:21;;;;;;;7.43;3.75;;;;;;;;;;5675483;25;20262;-51
2024/04/17 07:56:48;;;;;;;4.35;1.80;;;;;;;;;;5674543;25;20232;-47
2024/04/17 07:59:18;;;;;;;6.30;2.30;;;;;;;;;;5675865;25;20258;-49
2024/04/17 08:01:45;;;;;;;1.63;1.52;;;;;;;;;;5675608;25;20267;-51
2024/04/17 08:04:17;;;;;;;5.97;2.40;;;;;;;;;;5675770;25;20752;-48
2024/04/17 08:06:43;;;;;;;6.78;2.25;;;;;;;;;;5675874;25;20710;-52
2024/04/17 08:09:13;;;;;;;4.07;2.17;;;;;;;;;;5676106;25;20219;-48
2024/04/17 08:11:40;;;;;;;2.78;2.03;;;;;;;;;;5675871;25;20599;-50
2024/04/17 08:14:09;;;;;;;4.97;2.22;;;;;;;;;;5675274;25;20560;-50
2024/04/17 08:16:35;;;;;;;2.38;2.10;;;;;;;;;;5671905;25;20772;-49
2024/04/17 08:19:05;;;;;;;2.95;2.00;;;;;;;;;;5665584;25;20216;-47
2024/04/17 08:21:34;;;;;;;3.67;1.83;;;;;;;;;;5675634;25;20224;-47
2024/04/17 08:24:03;;;;;;;2.97;1.67;;;;;;;;;;5675064;25;20318;-49
2024/04/17 08:26:30;;;;;;;4.10;2.83;;;;;;;;;;5674806;25;20722;-51
2024/04/17 08:28:59;;;;;;;2.72;1.90;;;;;;;;;;5679243;25;20901;-52
2024/04/17 08:31:26;;;;;;;2.35;1.90;;;;;;;;;;5679090;25;20223;-50
2024/04/17 08:33:55;;;;;;;4.00;1.92;;;;;;;;;;5679009;25;20254;-50
2024/04/17 08:36:22;;;;;;;3.38;2.00;;;;;;;;;;5679332;25;20291;-51
2024/04/17 08:38:55;;;;;;;4.60;2.00;;;;;;;;;;5678750;25;20271;-51
2024/04/17 08:41:24;;;;;;;2.28;1.77;;;;;;;;;;5678856;25;20223;-52
2024/04/17 08:43:54;;;;;;;4.50;2.10;;;;;;;;;;5678248;25;20227;-48
2024/04/17 08:46:20;;;;;;;2.67;1.75;;;;;;;;;;5679149;25;20216;-47
2024/04/17 08:48:50;;;;;;;4.60;2.75;;;;;;;;;;5675019;25;20630;-52
2024/04/17 08:51:18;;;;;;;2.55;2.00;;;;;;;;;;5678200;25;20266;-48
2024/04/17 08:53:47;;;;;;;4.18;2.00;;;;;;;;;;5678246;25;20223;-47
2024/04/17 08:56:16;;;;;;;5.40;1.85;;;;;;;;;;5677810;25;20240;-48
2024/04/17 08:58:48;;;;;;;4.80;1.65;;;;;;;;;;5679305;25;20321;-48
2024/04/17 09:01:18;;;;;;;2.83;1.38;;;;;;;;;;5678811;25;20283;-50
2024/04/17 09:03:47;;;;;;;1.42;1.33;;;;;;;;;;5673511;25;20266;-48
2024/04/17 09:06:14;;;;;;;2.60;1.00;;;;;;;;;;5679060;25;20262;-48
2024/04/17 09:08:44;;;;;;;3.47;1.58;;;;;;;;;;5678678;25;20287;-48
2024/04/17 09:11:11;;;;;;;2.85;0.93;;;;;;;;;;5678635;25;20263;-47
2024/04/17 09:13:43;;;;;;;2.65;1.60;;;;;;;;;;5678309;25;20280;-52
2024/04/17 09:16:09;;;;;;;1.35;0.90;;;;;;;;;;5678848;25;20267;-49
2024/04/17 09:18:38;;;;;;;2.38;1.40;;;;;;;;;;5672721;25;20803;-51
2024/04/17 09:21:06;;;;;;;1.20;1.10;;;;;;;;;;5668983;25;20287;-49
2024/04/17 09:23:35;;;;;;;1.33;1.17;;;;;;;;;;5678410;25;20228;-47
2024/04/17 09:26:13;;;;;;;4.90;1.58;;;;;;;;;;5677362;25;20287;-53
2024/04/17 09:28:45;;;;;;;3.58;1.27;;;;;;;;;;5678638;25;20283;-51
2024/04/17 09:31:12;;;;;;;1.77;0.95;;;;;;;;;;5678774;25;20644;-53
2024/04/17 09:33:46;;;;;;;1.60;1.10;;;;;;;;;;5678063;25;20220;-47
2024/04/17 09:36:13;;;;;;;1.58;1.20;;;;;;;;;;5678497;25;20257;-48
2024/04/17 09:38:42;;;;;;;3.17;1.25;;;;;;;;;;5676564;25;20307;-47
2024/04/17 09:41:09;;;;;;;1.17;1.00;;;;;;;;;;5678249;25;20255;-49
2024/04/17 09:43:45;;;;;;;2.83;1.30;;;;;;;;;;5677413;25;20224;-48
2024/04/17 09:46:15;;;;;;;4.30;1.55;;;;;;;;;;5678590;25;20223;-48
2024/04/17 09:48:49;;;;;;;2.90;2.08;;;;;;;;;;5672584;25;20282;-48
2024/04/17 09:51:20;;;;;;;1.45;0.98;;;;;;;;;;5677820;25;20269;-51
2024/04/17 09:53:57;;;;;;;1.33;1.00;;;;;;;;;;5673353;25;20228;-48
2024/04/17 09:56:24;;;;;;;1.00;1.00;;;;;;;;;;5676333;25;20243;-50
2024/04/17 09:58:56;;;;;;;1.23;1.13;;;;;;;;;;5677929;25;20242;-49
2024/04/17 10:01:23;;;;;;;1.08;0.98;;;;;;;;;;5677737;25;20216;-53
2024/04/17 10:03:52;;;;;;;1.67;1.40;;;;;;;;;;5677592;25;20262;-51
2024/04/17 10:06:23;;;;;;;1.70;1.15;;;;;;;;;;5677642;25;20593;-52
2024/04/17 10:08:53;;;;;;;0.65;0.60;;;;;;;;;;5678067;25;20220;-50
2024/04/17 10:11:20;;;;;;;2.20;1.40;;;;;;;;;;5677905;25;20216;-50
2024/04/17 10:13:52;;;;;;;0.88;0.88;;;;;;;;;;5674845;25;20310;-52
2024/04/17 10:16:21;;;;;;;1.88;1.20;;;;;;;;;;5671616;25;20345;-49
2024/04/17 10:18:51;;;;;;;0.70;0.60;;;;;;;;;;5673684;25;20220;-51
2024/04/17 10:21:18;;;;;;;0.80;0.80;;;;;;;;;;5677343;25;20282;-51
2024/04/17 10:23:47;;;;;;;1.15;1.00;;;;;;;;;;5666905;25;20550;-50
2024/04/17 10:26:14;;;;;;;0.88;0.68;;;;;;;;;;5676295;25;20881;-52
2024/04/17 10:28:54;;;;;;;1.67;0.98;;;;;;;;;;5677149;25;20231;-52
2024/04/17 10:31:23;;;;;;;0.77;0.77;;;;;;;;;;5677288;25;20399;-53
2024/04/17 10:33:52;;;;;;;1.15;1.08;;;;;;;;;;5676357;25;20266;-48
2024/04/17 10:36:18;;;;;;;1.13;0.93;;;;;;;;;;5678835;25;20244;-52
2024/04/17 10:38:48;;;;;;;0.70;0.70;;;;;;;;;;5677080;25;20318;-48
2024/04/17 10:41:14;;;;;;;0.95;0.95;;;;;;;;;;5677324;25;20343;-49
2024/04/17 10:43:43;;;;;;;10.38;3.63;;;;;;;;;;5676179;25;20227;-48
2024/04/17 10:46:11;;;;;;;1.35;1.00;;;;;;;;;;5677328;25;20568;-48
2024/04/17 10:48:49;;;;;;;1.45;1.35;;;;;;;;;;5672326;25;20302;-49
2024/04/17 10:51:17;;;;;;;1.00;1.00;;;;;;;;;;5669853;25;20262;-48
2024/04/17 10:53:47;;;;;;;1.13;1.05;;;;;;;;;;5671551;25;20259;-49
2024/04/17 10:56:14;;;;;;;2.15;0.85;;;;;;;;;;5675648;25;20240;-48
2024/04/17 10:58:43;;;;;;;1.38;1.02;;;;;;;;;;5676924;25;20220;-48
2024/04/17 11:01:12;;;;;;;1.63;0.90;;;;;;;;;;5668848;25;20225;-48
2024/04/17 11:03:41;;;;;;;1.95;1.85;;;;;;;;;;5675862;25;20236;-48
2024/04/17 11:06:11;;;;;;;3.42;1.90;;;;;;;;;;5677045;25;20601;-47
2024/04/17 11:08:45;;;;;;;7.47;2.80;;;;;;;;;;5677038;25;20263;-47
2024/04/17 11:11:11;;;;;;;4.78;2.30;;;;;;;;;;5676697;25;20257;-47
2024/04/17 11:13:45;;;;;;;3.30;2.10;;;;;;;;;;5676381;25;20271;-48
2024/04/17 11:16:12;;;;;;;1.50;1.40;;;;;;;;;;5676789;25;20630;-49
2024/04/17 11:18:42;;;;;;;2.72;2.20;;;;;;;;;;5671649;25;20239;-50
2024/04/17 11:21:12;;;;;;;2.33;1.98;;;;;;;;;;5667727;25;20224;-48
2024/04/17 11:23:42;;;;;;;2.03;1.83;;;;;;;;;;5670515;25;20276;-50
2024/04/17 11:26:09;;;;;;;1.85;1.75;;;;;;;;;;5666181;25;20268;-52
2024/04/17 11:28:42;;;;;;;2.13;1.60;;;;;;;;;;5676445;25;20707;-49
2024/04/17 11:31:13;;;;;;;2.17;1.40;;;;;;;;;;5676555;25;20645;-51
2024/04/17 11:33:39;;;;;;;3.03;1.77;;;;;;;;;;5675996;25;20263;-50
2024/04/17 11:36:15;;;;;;;3.00;1.80;;;;;;;;;;5676555;25;20564;-48
2024/04/17 11:38:42;;;;;;;4.28;2.20;;;;;;;;;;5670525;25;20208;-51
2024/04/17 11:41:13;;;;;;;2.30;2.15;;;;;;;;;;5676316;25;20829;-49
2024/04/17 11:43:40;;;;;;;3.67;1.75;;;;;;;;;;5674999;25;20343;-47
2024/04/17 11:46:10;;;;;;;2.03;1.77;;;;;;;;;;5675264;25;20616;-51
2024/04/17 11:48:37;;;;;;;2.83;2.03;;;;;;;;;;5669905;25;20236;-48
2024/04/17 11:51:06;;;;;;;3.85;2.85;;;;;;;;;;5676177;25;20750;-50
2024/04/17 11:53:35;;;;;;;2.33;1.48;;;;;;;;;;5675754;25;20219;-48
2024/04/17 11:56:05;;;;;;;1.42;1.33;;;;;;;;;;5674270;25;20281;-48
2024/04/17 11:58:31;;;;;;;1.40;1.30;;;;;;;;;;5676145;25;20267;-47
2024/04/17 12:01:00;;;;;;;2.47;1.48;;;;;;;;;;5674971;25;20284;-50
2024/04/17 12:03:30;;;;;;;4.95;2.28;;;;;;;;;;5675166;25;20574;-48
2024/04/17 12:06:00;;;;;;;1.63;1.52;;;;;;;;;;5671296;25;20287;-48
2024/04/17 12:08:27;;;;;;;2.97;1.95;;;;;;;;;;5671817;25;20223;-51
2024/04/17 12:10:58;;;;;;;2.80;1.30;;;;;;;;;;5675744;25;20788;-50
2024/04/17 12:13:25;;;;;;;2.05;1.30;;;;;;;;;;5675183;25;20334;-50
2024/04/17 12:15:54;;;;;;;1.30;1.20;;;;;;;;;;5675737;25;20256;-53
2024/04/17 12:18:21;;;;;;;1.35;1.23;;;;;;;;;;5670330;25;20271;-51
2024/04/17 12:20:50;;;;;;;2.35;1.60;;;;;;;;;;5675612;25;20310;-48
2024/04/17 12:23:18;;;;;;;2.72;1.30;;;;;;;;;;5675191;25;20266;-48
2024/04/17 12:28:36;;;;;;;0.90;0.90;;;;;;;;;;5678546;25;20322;-51
2024/04/17 12:31:05;;;;;;;0.93;0.90;;;;;;;;;;5675148;25;20707;-52
2024/04/17 12:33:34;;;;;;;1.02;0.93;;;;;;;;;;5675075;25;20259;-49
2024/04/17 12:36:03;;;;;;;1.77;1.00;;;;;;;;;;5675365;25;20266;-53
2024/04/17 12:38:33;;;;;;;1.33;1.10;;;;;;;;;;5675523;25;20224;-49
2024/04/17 12:41:02;;;;;;;2.67;1.30;;;;;;;;;;5675586;25;20540;-47
2024/04/17 12:43:31;;;;;;;1.80;1.00;;;;;;;;;;5674088;25;20224;-50
2024/04/17 12:46:00;;;;;;;1.52;1.20;;;;;;;;;;5665535;25;20254;-49
2024/04/17 12:48:29;;;;;;;0.82;0.80;;;;;;;;;;5669597;25;20243;-49
2024/04/17 12:50:58;;;;;;;1.65;1.30;;;;;;;;;;5675160;25;20215;-47
2024/04/17 12:53:27;;;;;;;1.65;1.08;;;;;;;;;;5674488;25;20224;-48
2024/04/17 12:55:54;;;;;;;1.17;1.05;;;;;;;;;;5673392;25;20239;-48
2024/04/17 12:58:24;;;;;;;0.85;0.80;;;;;;;;;;5674900;25;20270;-48
2024/04/17 13:00:53;;;;;;;0.82;0.80;;;;;;;;;;5674680;25;20633;-47
2024/04/17 13:03:22;;;;;;;0.82;0.70;;;;;;;;;;5674057;25;20710;-48
2024/04/17 13:05:52;;;;;;;0.73;0.73;;;;;;;;;;5674442;25;20269;-48
2024/04/17 13:08:19;;;;;;;0.80;0.80;;;;;;;;;;5674229;25;20263;-48
2024/04/17 13:10:48;;;;;;;0.65;0.65;;;;;;;;;;5674715;25;20215;-51
2024/04/17 13:13:14;;;;;;;1.00;1.00;;;;;;;;;;5676080;25;20220;-52
2024/04/17 13:15:43;;;;;;;1.08;1.00;;;;;;;;;;5678163;25;20274;-48
2024/04/17 13:18:10;;;;;;;0.90;0.77;;;;;;;;;;5666603;25;20564;-47
2024/04/17 13:20:42;;;;;;;1.02;0.98;;;;;;;;;;5679111;25;20259;-48
2024/04/17 13:23:08;;;;;;;1.55;1.00;;;;;;;;;;5679365;25;20216;-47
2024/04/17 13:25:37;;;;;;;0.73;0.73;;;;;;;;;;5673699;25;20233;-47
2024/04/17 13:28:05;;;;;;;1.17;1.15;;;;;;;;;;5679044;25;20216;-47
2024/04/17 13:30:34;;;;;;;1.02;1.00;;;;;;;;;;5679194;25;20263;-47
2024/04/17 13:33:01;;;;;;;0.90;0.90;;;;;;;;;;5679008;25;20275;-50
2024/04/17 13:35:30;;;;;;;1.20;1.10;;;;;;;;;;5678771;25;20228;-49
2024/04/17 13:37:59;;;;;;;0.70;0.70;;;;;;;;;;5678812;25;20208;-48
2024/04/17 13:40:28;;;;;;;1.00;1.00;;;;;;;;;;5654930;25;20330;-48
2024/04/17 13:42:55;;;;;;;0.70;0.70;;;;;;;;;;5678671;25;20228;-50
2024/04/17 13:45:24;;;;;;;1.00;1.00;;;;;;;;;;5678524;25;20260;-49
2024/04/17 13:47:50;;;;;;;0.90;0.90;;;;;;;;;;5678793;25;20204;-49
2024/04/17 13:50:19;;;;;;;0.80;0.80;;;;;;;;;;5678610;25;20208;-48
2024/04/17 13:52:46;;;;;;;1.38;1.27;;;;;;;;;;5655187;25;20225;-51
2024/04/17 13:55:18;;;;;;;1.00;1.00;;;;;;;;;;5677106;25;20347;-50
2024/04/17 13:57:44;;;;;;;0.85;0.85;;;;;;;;;;5670852;25;20220;-48
2024/04/17 14:00:14;;;;;;;0.80;0.80;;;;;;;;;;5669904;25;20207;-47
2024/04/17 14:02:41;;;;;;;0.70;0.70;;;;;;;;;;5678241;25;20267;-47
2024/04/17 14:05:10;;;;;;;0.82;0.82;;;;;;;;;;5652803;25;20224;-48
2024/04/17 14:07:37;;;;;;;0.75;0.75;;;;;;;;;;5671666;25;20220;-48
2024/04/17 14:10:06;;;;;;;1.00;1.00;;;;;;;;;;5668636;25;20839;-48
2024/04/17 14:12:38;;;;;;;1.20;0.90;;;;;;;;;;5673882;25;20801;-48
2024/04/17 14:15:08;;;;;;;0.70;0.70;;;;;;;;;;5667716;25;20263;-48
2024/04/17 14:17:34;;;;;;;0.65;0.65;;;;;;;;;;5671327;25;20359;-49
2024/04/17 14:20:04;;;;;;;0.60;0.60;;;;;;;;;;5678364;25;20311;-48
2024/04/17 14:22:30;;;;;;;0.70;0.70;;;;;;;;;;5677977;25;20283;-49
2024/04/17 14:24:59;;;;;;;0.60;0.50;;;;;;;;;;5677204;25;20738;-47
2024/04/17 14:27:26;;;;;;;0.55;0.50;;;;;;;;;;5678015;25;20258;-48
2024/04/17 14:29:58;;;;;;;1.05;0.75;;;;;;;;;;5677974;25;20609;-52
2024/04/17 14:32:27;;;;;;;0.47;0.47;;;;;;;;;;5677690;25;20220;-49
2024/04/17 14:34:55;;;;;;;0.70;0.70;;;;;;;;;;5651859;25;20217;-49
2024/04/17 14:37:24;;;;;;;0.60;0.60;;;;;;;;;;5671879;25;20270;-48
2024/04/17 14:39:50;;;;;;;0.57;0.57;;;;;;;;;;5677818;25;20238;-48
2024/04/17 14:42:19;;;;;;;0.57;0.57;;;;;;;;;;5668690;25;20730;-47
2024/04/17 14:44:46;;;;;;;0.55;0.47;;;;;;;;;;5638909;25;20245;-48
2024/04/17 14:47:18;;;;;;;0.65;0.65;;;;;;;;;;5669854;25;20256;-50
2024/04/17 14:49:47;;;;;;;2.35;1.23;;;;;;;;;;5668347;25;20220;-48
2024/04/17 14:52:16;;;;;;;0.57;0.57;;;;;;;;;;5677611;25;20220;-48
2024/04/17 14:54:42;;;;;;;0.50;0.50;;;;;;;;;;5677497;25;20338;-47